Login to view Products
 
Friday, March 22, 2019 (10:04 UTC)
Al Maktoum International Airport
Last Updated: 22-Mar-2019 (10:03Z)
Wind Dir/Speed: NNE at 11 kt
Temperature: 30.8°C
Rel. Humidity: 27 %
Pressure: 1014.2 hPa
Visibility: 10000 m
  • METAR OMDW 221000Z 05008KT 360V070 CAVOK 31/09 Q1014 NOSIG
  • TAF OMDW 220500Z 2206/2312 07010KT 8000 NSC BECMG 2206/2208 19008KT PROB30 TEMPO 2206/2214 VRB15G25KT 3000 SHRA BLDU FEW040TCU BECMG 2210/2212 01015KT BECMG 2215/2217 07008KT PROB30 TEMPO 2220/2310 VRB18G30KT 3000 TSRA BLDU FEW040CB BECMG 2301/2303 16015KT PROB40 TEMPO 2302/2312 16020G30KT 1500 BLSA=
D:\Input Parser\Destinations\Final\05\OMDWL06120500760454593.txt
1